Mountain Lake, Minnesota
Current Conditions -  °F | °C
As of 9:13 AM on Wednesday 22 Oct 2014 (Local Time) from KMWM Reporting Station
Clear Clear  
Wind Chill: 42°   Ceiling: Unl
Heat Index: 48°   Visibility: 10mi
Dew Point: 39°   Wind: 16mph
Humidity: 71%   Direction: 150°SSE
Pressure: 30.07"   Gusts: 22mph
Location:  43.94°N, 94.93°W
Report Text: KMWM 221413Z AUTO 15014G19KT 10SM CLR 09/04 A3007 RMK AO2
Loading
Personal Weather Stations






























Interactive Weather Map
Tropical Storm Tracking
New forecast layout! Learn more

10-Day Weather Forecast

Advertisements
Track Severe Weather on mobile